sensor_id;sensor_type;location;lat;lon;timestamp;temperature;humidity
40289;DHT22;28991;52.028;5.526;2023-03-14T00:00:58;18.00;51.50
40289;DHT22;28991;52.028;5.526;2023-03-14T00:03:23;18.00;51.50
40289;DHT22;28991;52.028;5.526;2023-03-14T00:05:49;17.90;51.50
40289;DHT22;28991;52.028;5.526;2023-03-14T00:08:15;18.00;51.60
40289;DHT22;28991;52.028;5.526;2023-03-14T00:10:41;18.00;52.10
40289;DHT22;28991;52.028;5.526;2023-03-14T00:13:07;18.60;51.90
40289;DHT22;28991;52.028;5.526;2023-03-14T00:15:34;17.80;51.40
40289;DHT22;28991;52.028;5.526;2023-03-14T00:18:00;18.00;51.60
40289;DHT22;28991;52.028;5.526;2023-03-14T00:20:25;18.10;51.70
40289;DHT22;28991;52.028;5.526;2023-03-14T00:22:51;18.10;51.70
40289;DHT22;28991;52.028;5.526;2023-03-14T00:25:17;17.90;51.60
40289;DHT22;28991;52.028;5.526;2023-03-14T00:27:43;18.10;51.70
40289;DHT22;28991;52.028;5.526;2023-03-14T00:30:09;18.00;51.60
40289;DHT22;28991;52.028;5.526;2023-03-14T00:32:35;18.00;51.60
40289;DHT22;28991;52.028;5.526;2023-03-14T00:35:01;17.90;51.50
40289;DHT22;28991;52.028;5.526;2023-03-14T00:37:27;18.00;51.60
40289;DHT22;28991;52.028;5.526;2023-03-14T00:39:52;18.00;51.60
40289;DHT22;28991;52.028;5.526;2023-03-14T00:42:18;18.30;51.80
40289;DHT22;28991;52.028;5.526;2023-03-14T00:44:43;18.00;51.60
40289;DHT22;28991;52.028;5.526;2023-03-14T00:47:09;18.00;51.60
40289;DHT22;28991;52.028;5.526;2023-03-14T00:49:35;17.90;51.60
40289;DHT22;28991;52.028;5.526;2023-03-14T00:52:00;17.90;51.60
40289;DHT22;28991;52.028;5.526;2023-03-14T00:54:26;17.90;51.60
40289;DHT22;28991;52.028;5.526;2023-03-14T00:56:52;17.90;51.60
40289;DHT22;28991;52.028;5.526;2023-03-14T00:59:17;18.00;51.70
40289;DHT22;28991;52.028;5.526;2023-03-14T01:01:43;18.10;51.70
40289;DHT22;28991;52.028;5.526;2023-03-14T01:04:09;18.00;51.60
40289;DHT22;28991;52.028;5.526;2023-03-14T01:06:35;17.90;51.60
40289;DHT22;28991;52.028;5.526;2023-03-14T01:09:00;17.90;51.60
40289;DHT22;28991;52.028;5.526;2023-03-14T01:11:28;17.90;51.60
40289;DHT22;28991;52.028;5.526;2023-03-14T01:13:55;18.00;51.70
40289;DHT22;28991;52.028;5.526;2023-03-14T01:16:22;17.60;51.50
40289;DHT22;28991;52.028;5.526;2023-03-14T01:18:48;18.00;51.70
40289;DHT22;28991;52.028;5.526;2023-03-14T01:21:18;18.00;51.70
40289;DHT22;28991;52.028;5.526;2023-03-14T01:23:45;17.90;51.60
40289;DHT22;28991;52.028;5.526;2023-03-14T01:26:15;17.90;51.60
40289;DHT22;28991;52.028;5.526;2023-03-14T01:28:41;17.80;51.60
40289;DHT22;28991;52.028;5.526;2023-03-14T01:31:09;17.90;51.60
40289;DHT22;28991;52.028;5.526;2023-03-14T01:33:36;18.00;51.70
40289;DHT22;28991;52.028;5.526;2023-03-14T01:36:02;17.70;51.50
40289;DHT22;28991;52.028;5.526;2023-03-14T01:38:32;18.00;51.70
40289;DHT22;28991;52.028;5.526;2023-03-14T01:40:58;17.90;51.60
40289;DHT22;28991;52.028;5.526;2023-03-14T01:43:24;18.00;51.70
40289;DHT22;28991;52.028;5.526;2023-03-14T01:51:45;17.90;51.60
40289;DHT22;28991;52.028;5.526;2023-03-14T01:56:53;18.00;51.70
40289;DHT22;28991;52.028;5.526;2023-03-14T01:59:21;17.90;51.60
40289;DHT22;28991;52.028;5.526;2023-03-14T02:01:48;18.00;51.60
40289;DHT22;28991;52.028;5.526;2023-03-14T02:04:16;17.90;51.60
40289;DHT22;28991;52.028;5.526;2023-03-14T02:07:16;17.90;51.60
40289;DHT22;28991;52.028;5.526;2023-03-14T02:09:42;17.90;51.60
40289;DHT22;28991;52.028;5.526;2023-03-14T02:12:08;17.90;51.60
40289;DHT22;28991;52.028;5.526;2023-03-14T02:14:36;17.90;51.60
40289;DHT22;28991;52.028;5.526;2023-03-14T02:17:05;17.40;51.30
40289;DHT22;28991;52.028;5.526;2023-03-14T02:20:10;17.90;51.60
40289;DHT22;28991;52.028;5.526;2023-03-14T02:22:40;17.90;51.60
40289;DHT22;28991;52.028;5.526;2023-03-14T02:25:31;17.90;51.60
40289;DHT22;28991;52.028;5.526;2023-03-14T02:28:01;17.90;51.60
40289;DHT22;28991;52.028;5.526;2023-03-14T02:30:29;17.90;51.60
40289;DHT22;28991;52.028;5.526;2023-03-14T02:33:04;17.90;51.60
40289;DHT22;28991;52.028;5.526;2023-03-14T02:35:35;17.90;51.60
40289;DHT22;28991;52.028;5.526;2023-03-14T02:38:51;17.90;51.60
40289;DHT22;28991;52.028;5.526;2023-03-14T02:41:17;17.90;51.60
40289;DHT22;28991;52.028;5.526;2023-03-14T02:43:43;18.00;51.60
40289;DHT22;28991;52.028;5.526;2023-03-14T02:46:12;17.90;51.60
40289;DHT22;28991;52.028;5.526;2023-03-14T02:48:54;18.20;51.80
40289;DHT22;28991;52.028;5.526;2023-03-14T02:51:22;17.60;51.50
40289;DHT22;28991;52.028;5.526;2023-03-14T02:53:49;17.90;51.60
40289;DHT22;28991;52.028;5.526;2023-03-14T02:56:14;17.90;51.60
40289;DHT22;28991;52.028;5.526;2023-03-14T02:58:40;17.90;51.60
40289;DHT22;28991;52.028;5.526;2023-03-14T03:01:06;17.90;51.60
40289;DHT22;28991;52.028;5.526;2023-03-14T03:03:32;17.90;51.60
40289;DHT22;28991;52.028;5.526;2023-03-14T03:05:58;18.20;51.80
40289;DHT22;28991;52.028;5.526;2023-03-14T03:08:25;17.80;51.60
40289;DHT22;28991;52.028;5.526;2023-03-14T03:10:52;17.90;51.60
40289;DHT22;28991;52.028;5.526;2023-03-14T03:13:18;17.80;51.50
40289;DHT22;28991;52.028;5.526;2023-03-14T03:15:44;17.90;51.60
40289;DHT22;28991;52.028;5.526;2023-03-14T03:18:10;18.20;51.80
40289;DHT22;28991;52.028;5.526;2023-03-14T03:20:36;17.90;51.60
40289;DHT22;28991;52.028;5.526;2023-03-14T03:23:02;17.80;51.60
40289;DHT22;28991;52.028;5.526;2023-03-14T03:25:28;18.00;51.70
40289;DHT22;28991;52.028;5.526;2023-03-14T03:27:54;17.80;51.60
40289;DHT22;28991;52.028;5.526;2023-03-14T03:30:20;17.80;51.60
40289;DHT22;28991;52.028;5.526;2023-03-14T03:32:45;17.70;51.50
40289;DHT22;28991;52.028;5.526;2023-03-14T03:35:11;17.80;51.60
40289;DHT22;28991;52.028;5.526;2023-03-14T03:37:37;17.80;51.60
40289;DHT22;28991;52.028;5.526;2023-03-14T03:40:04;17.90;51.60
40289;DHT22;28991;52.028;5.526;2023-03-14T03:42:32;18.00;51.70
40289;DHT22;28991;52.028;5.526;2023-03-14T03:44:58;17.90;51.60
40289;DHT22;28991;52.028;5.526;2023-03-14T03:47:24;17.90;51.60
40289;DHT22;28991;52.028;5.526;2023-03-14T03:49:49;17.70;51.50
40289;DHT22;28991;52.028;5.526;2023-03-14T03:52:15;17.80;51.60
40289;DHT22;28991;52.028;5.526;2023-03-14T03:54:40;17.70;51.50
40289;DHT22;28991;52.028;5.526;2023-03-14T03:57:06;17.80;51.60
40289;DHT22;28991;52.028;5.526;2023-03-14T03:59:32;18.50;51.90
40289;DHT22;28991;52.028;5.526;2023-03-14T04:01:57;17.80;51.60
40289;DHT22;28991;52.028;5.526;2023-03-14T04:04:23;17.80;51.50
40289;DHT22;28991;52.028;5.526;2023-03-14T04:06:48;17.80;51.60
40289;DHT22;28991;52.028;5.526;2023-03-14T04:09:14;17.70;51.50
40289;DHT22;28991;52.028;5.526;2023-03-14T04:11:40;17.80;51.60
40289;DHT22;28991;52.028;5.526;2023-03-14T04:14:07;17.70;51.50
40289;DHT22;28991;52.028;5.526;2023-03-14T04:16:32;17.80;51.60
40289;DHT22;28991;52.028;5.526;2023-03-14T04:18:58;17.70;51.50
40289;DHT22;28991;52.028;5.526;2023-03-14T04:21:24;17.80;51.60
40289;DHT22;28991;52.028;5.526;2023-03-14T04:23:50;17.80;51.60
40289;DHT22;28991;52.028;5.526;2023-03-14T04:26:16;17.70;51.50
40289;DHT22;28991;52.028;5.526;2023-03-14T04:28:42;18.00;51.70
40289;DHT22;28991;52.028;5.526;2023-03-14T04:31:09;17.80;51.60
40289;DHT22;28991;52.028;5.526;2023-03-14T04:33:35;17.80;51.60
40289;DHT22;28991;52.028;5.526;2023-03-14T04:36:03;17.40;51.30
40289;DHT22;28991;52.028;5.526;2023-03-14T04:38:28;17.80;51.60
40289;DHT22;28991;52.028;5.526;2023-03-14T04:40:54;18.10;51.70
40289;DHT22;28991;52.028;5.526;2023-03-14T04:43:19;17.80;51.60
40289;DHT22;28991;52.028;5.526;2023-03-14T04:45:45;18.20;51.80
40289;DHT22;28991;52.028;5.526;2023-03-14T04:48:11;18.20;51.80
40289;DHT22;28991;52.028;5.526;2023-03-14T04:50:37;17.80;51.60
40289;DHT22;28991;52.028;5.526;2023-03-14T04:53:04;17.80;51.60
40289;DHT22;28991;52.028;5.526;2023-03-14T04:55:29;18.00;51.70
40289;DHT22;28991;52.028;5.526;2023-03-14T04:57:57;17.80;51.60
40289;DHT22;28991;52.028;5.526;2023-03-14T05:00:23;17.70;51.50
40289;DHT22;28991;52.028;5.526;2023-03-14T05:02:48;17.70;51.50
40289;DHT22;28991;52.028;5.526;2023-03-14T05:05:14;17.90;51.60
40289;DHT22;28991;52.028;5.526;2023-03-14T05:07:40;17.80;51.60
40289;DHT22;28991;52.028;5.526;2023-03-14T05:10:05;17.80;51.60
40289;DHT22;28991;52.028;5.526;2023-03-14T05:12:31;17.80;51.60
40289;DHT22;28991;52.028;5.526;2023-03-14T05:14:57;17.80;51.60
40289;DHT22;28991;52.028;5.526;2023-03-14T05:17:22;17.90;51.60
40289;DHT22;28991;52.028;5.526;2023-03-14T05:19:48;17.70;51.60
40289;DHT22;28991;52.028;5.526;2023-03-14T05:22:13;18.00;51.70
40289;DHT22;28991;52.028;5.526;2023-03-14T05:24:39;17.80;51.60
40289;DHT22;28991;52.028;5.526;2023-03-14T05:27:05;17.90;51.60
40289;DHT22;28991;52.028;5.526;2023-03-14T05:29:30;17.80;51.60
40289;DHT22;28991;52.028;5.526;2023-03-14T05:31:56;18.10;51.70
40289;DHT22;28991;52.028;5.526;2023-03-14T05:34:21;17.80;51.50
40289;DHT22;28991;52.028;5.526;2023-03-14T05:36:47;17.70;51.50
40289;DHT22;28991;52.028;5.526;2023-03-14T05:39:13;17.80;51.60
40289;DHT22;28991;52.028;5.526;2023-03-14T05:41:38;17.80;51.60
40289;DHT22;28991;52.028;5.526;2023-03-14T05:44:04;17.80;51.60
40289;DHT22;28991;52.028;5.526;2023-03-14T05:46:30;17.80;51.60
40289;DHT22;28991;52.028;5.526;2023-03-14T05:48:56;17.70;51.50
40289;DHT22;28991;52.028;5.526;2023-03-14T05:51:22;17.80;51.60
40289;DHT22;28991;52.028;5.526;2023-03-14T05:53:48;17.80;51.60
40289;DHT22;28991;52.028;5.526;2023-03-14T05:56:13;17.80;51.60
40289;DHT22;28991;52.028;5.526;2023-03-14T05:58:39;18.30;51.80
40289;DHT22;28991;52.028;5.526;2023-03-14T06:01:05;17.80;51.60
40289;DHT22;28991;52.028;5.526;2023-03-14T06:03:32;17.80;51.60
40289;DHT22;28991;52.028;5.526;2023-03-14T06:05:57;17.70;51.50
40289;DHT22;28991;52.028;5.526;2023-03-14T06:08:23;17.80;51.60
40289;DHT22;28991;52.028;5.526;2023-03-14T06:10:50;17.80;51.90
40289;DHT22;28991;52.028;5.526;2023-03-14T06:13:15;17.80;52.60
40289;DHT22;28991;52.028;5.526;2023-03-14T06:15:42;17.00;52.00
40289;DHT22;28991;52.028;5.526;2023-03-14T06:18:07;18.00;52.60
40289;DHT22;28991;52.028;5.526;2023-03-14T06:20:35;18.40;52.50
40289;DHT22;28991;52.028;5.526;2023-03-14T06:23:00;18.10;52.20
40289;DHT22;28991;52.028;5.526;2023-03-14T06:25:26;18.10;51.80
40289;DHT22;28991;52.028;5.526;2023-03-14T06:27:52;18.20;52.10
40289;DHT22;28991;52.028;5.526;2023-03-14T06:30:17;18.60;54.00
40289;DHT22;28991;52.028;5.526;2023-03-14T06:32:43;18.30;53.10
40289;DHT22;28991;52.028;5.526;2023-03-14T06:35:08;18.20;53.00
40289;DHT22;28991;52.028;5.526;2023-03-14T06:37:34;18.30;53.40
40289;DHT22;28991;52.028;5.526;2023-03-14T06:40:00;18.30;53.20
40289;DHT22;28991;52.028;5.526;2023-03-14T06:42:25;18.60;53.70
40289;DHT22;28991;52.028;5.526;2023-03-14T06:44:51;18.00;53.30
40289;DHT22;28991;52.028;5.526;2023-03-14T06:47:17;18.70;52.70
40289;DHT22;28991;52.028;5.526;2023-03-14T06:49:43;18.50;52.30
40289;DHT22;28991;52.028;5.526;2023-03-14T06:52:09;18.60;52.30
40289;DHT22;28991;52.028;5.526;2023-03-14T06:54:34;18.60;52.20
40289;DHT22;28991;52.028;5.526;2023-03-14T06:57:00;18.60;52.10
40289;DHT22;28991;52.028;5.526;2023-03-14T06:59:25;18.60;52.40
40289;DHT22;28991;52.028;5.526;2023-03-14T07:01:51;19.90;53.10
40289;DHT22;28991;52.028;5.526;2023-03-14T07:04:17;18.50;52.60
40289;DHT22;28991;52.028;5.526;2023-03-14T07:06:43;18.60;52.70
40289;DHT22;28991;52.028;5.526;2023-03-14T07:09:13;18.70;53.10
40289;DHT22;28991;52.028;5.526;2023-03-14T07:11:39;19.40;53.40
40289;DHT22;28991;52.028;5.526;2023-03-14T07:14:04;18.60;53.50
40289;DHT22;28991;52.028;5.526;2023-03-14T07:16:30;18.60;53.30
40289;DHT22;28991;52.028;5.526;2023-03-14T07:18:59;18.70;53.50
40289;DHT22;28991;52.028;5.526;2023-03-14T07:21:25;18.80;53.80
40289;DHT22;28991;52.028;5.526;2023-03-14T07:23:50;18.80;53.80
40289;DHT22;28991;52.028;5.526;2023-03-14T07:26:16;20.70;54.90
40289;DHT22;28991;52.028;5.526;2023-03-14T07:28:42;18.70;53.60
40289;DHT22;28991;52.028;5.526;2023-03-14T07:31:08;19.40;54.00
40289;DHT22;28991;52.028;5.526;2023-03-14T07:33:33;19.40;53.80
40289;DHT22;28991;52.028;5.526;2023-03-14T07:35:59;19.00;53.50
40289;DHT22;28991;52.028;5.526;2023-03-14T07:38:25;18.90;53.60
40289;DHT22;28991;52.028;5.526;2023-03-14T07:40:58;19.00;53.40
40289;DHT22;28991;52.028;5.526;2023-03-14T07:43:23;18.80;53.20
40289;DHT22;28991;52.028;5.526;2023-03-14T07:45:49;19.00;53.10
40289;DHT22;28991;52.028;5.526;2023-03-14T07:48:14;19.00;53.10
40289;DHT22;28991;52.028;5.526;2023-03-14T07:50:40;19.00;53.10
40289;DHT22;28991;52.028;5.526;2023-03-14T07:53:05;19.10;53.30
40289;DHT22;28991;52.028;5.526;2023-03-14T07:55:31;19.10;54.20
40289;DHT22;28991;52.028;5.526;2023-03-14T07:57:57;19.00;55.10
40289;DHT22;28991;52.028;5.526;2023-03-14T08:00:22;19.00;55.60
40289;DHT22;28991;52.028;5.526;2023-03-14T08:02:48;18.90;54.80
40289;DHT22;28991;52.028;5.526;2023-03-14T08:05:13;19.20;54.80
40289;DHT22;28991;52.028;5.526;2023-03-14T08:07:39;19.20;54.90
40289;DHT22;28991;52.028;5.526;2023-03-14T08:10:05;19.20;54.30
40289;DHT22;28991;52.028;5.526;2023-03-14T08:12:31;19.30;53.80
40289;DHT22;28991;52.028;5.526;2023-03-14T08:14:56;19.30;53.70
40289;DHT22;28991;52.028;5.526;2023-03-14T08:17:22;19.40;53.50
40289;DHT22;28991;52.028;5.526;2023-03-14T08:19:47;19.40;53.30
40289;DHT22;28991;52.028;5.526;2023-03-14T08:22:13;19.50;53.10
40289;DHT22;28991;52.028;5.526;2023-03-14T08:24:39;19.50;53.00
40289;DHT22;28991;52.028;5.526;2023-03-14T08:27:04;19.50;52.80
40289;DHT22;28991;52.028;5.526;2023-03-14T08:29:30;19.50;52.10
40289;DHT22;28991;52.028;5.526;2023-03-14T08:31:55;19.50;51.90
40289;DHT22;28991;52.028;5.526;2023-03-14T08:34:21;19.50;52.00
40289;DHT22;28991;52.028;5.526;2023-03-14T08:36:46;19.60;52.20
40289;DHT22;28991;52.028;5.526;2023-03-14T08:39:12;19.50;51.90
40289;DHT22;28991;52.028;5.526;2023-03-14T08:41:38;19.60;51.90
40289;DHT22;28991;52.028;5.526;2023-03-14T08:44:07;19.60;52.20
40289;DHT22;28991;52.028;5.526;2023-03-14T08:46:33;19.60;51.30
40289;DHT22;28991;52.028;5.526;2023-03-14T08:48:58;19.60;51.40
40289;DHT22;28991;52.028;5.526;2023-03-14T08:51:24;19.60;51.90
40289;DHT22;28991;52.028;5.526;2023-03-14T08:53:50;19.60;51.40
40289;DHT22;28991;52.028;5.526;2023-03-14T08:56:16;20.10;50.90
40289;DHT22;28991;52.028;5.526;2023-03-14T08:58:41;19.60;50.60
40289;DHT22;28991;52.028;5.526;2023-03-14T09:01:09;19.60;52.00
40289;DHT22;28991;52.028;5.526;2023-03-14T09:03:35;19.60;50.60
40289;DHT22;28991;52.028;5.526;2023-03-14T09:06:09;19.60;51.00
40289;DHT22;28991;52.028;5.526;2023-03-14T09:08:35;19.60;50.40
40289;DHT22;28991;52.028;5.526;2023-03-14T09:11:01;19.60;50.70
40289;DHT22;28991;52.028;5.526;2023-03-14T09:13:27;19.70;50.30
40289;DHT22;28991;52.028;5.526;2023-03-14T09:15:54;19.90;50.60
40289;DHT22;28991;52.028;5.526;2023-03-14T09:18:20;19.60;50.20
40289;DHT22;28991;52.028;5.526;2023-03-14T09:20:46;19.60;50.00
40289;DHT22;28991;52.028;5.526;2023-03-14T09:23:11;19.60;50.30
40289;DHT22;28991;52.028;5.526;2023-03-14T09:25:37;19.60;49.80
40289;DHT22;28991;52.028;5.526;2023-03-14T09:28:05;19.60;49.60
40289;DHT22;28991;52.028;5.526;2023-03-14T09:30:30;19.60;50.40
40289;DHT22;28991;52.028;5.526;2023-03-14T09:32:56;19.60;50.30
40289;DHT22;28991;52.028;5.526;2023-03-14T09:35:23;19.60;50.40
40289;DHT22;28991;52.028;5.526;2023-03-14T09:37:48;19.70;50.40
40289;DHT22;28991;52.028;5.526;2023-03-14T09:40:18;19.60;50.10
40289;DHT22;28991;52.028;5.526;2023-03-14T09:42:47;19.60;50.00
40289;DHT22;28991;52.028;5.526;2023-03-14T09:45:35;19.50;49.90
40289;DHT22;28991;52.028;5.526;2023-03-14T09:48:03;19.20;48.50
40289;DHT22;28991;52.028;5.526;2023-03-14T09:50:44;19.50;47.80
40289;DHT22;28991;52.028;5.526;2023-03-14T09:53:17;19.50;48.60
40289;DHT22;28991;52.028;5.526;2023-03-14T09:55:45;19.50;47.70
40289;DHT22;28991;52.028;5.526;2023-03-14T09:58:14;19.60;48.80
40289;DHT22;28991;52.028;5.526;2023-03-14T10:00:41;19.60;48.80
40289;DHT22;28991;52.028;5.526;2023-03-14T10:05:42;19.70;48.60
40289;DHT22;28991;52.028;5.526;2023-03-14T10:08:11;20.20;48.10
40289;DHT22;28991;52.028;5.526;2023-03-14T10:10:37;19.60;48.50
40289;DHT22;28991;52.028;5.526;2023-03-14T10:13:23;19.50;47.80
40289;DHT22;28991;52.028;5.526;2023-03-14T10:15:59;20.40;47.20
40289;DHT22;28991;52.028;5.526;2023-03-14T10:18:25;19.50;48.30
40289;DHT22;28991;52.028;5.526;2023-03-14T10:23:31;19.50;48.30
40289;DHT22;28991;52.028;5.526;2023-03-14T10:26:24;19.50;46.50
40289;DHT22;28991;52.028;5.526;2023-03-14T10:28:54;19.50;46.10
40289;DHT22;28991;52.028;5.526;2023-03-14T10:31:26;19.50;45.40
40289;DHT22;28991;52.028;5.526;2023-03-14T10:34:25;19.80;45.50
40289;DHT22;28991;52.028;5.526;2023-03-14T10:36:59;19.60;45.70
40289;DHT22;28991;52.028;5.526;2023-03-14T10:44:43;19.60;46.40
40289;DHT22;28991;52.028;5.526;2023-03-14T10:47:17;19.70;46.60
40289;DHT22;28991;52.028;5.526;2023-03-14T10:49:43;19.40;47.20
40289;DHT22;28991;52.028;5.526;2023-03-14T10:52:25;20.10;47.90
40289;DHT22;28991;52.028;5.526;2023-03-14T10:55:03;19.50;46.80
40289;DHT22;28991;52.028;5.526;2023-03-14T10:57:29;19.60;47.40
40289;DHT22;28991;52.028;5.526;2023-03-14T10:59:56;19.80;47.60
40289;DHT22;28991;52.028;5.526;2023-03-14T11:05:53;19.50;47.30
40289;DHT22;28991;52.028;5.526;2023-03-14T11:08:54;19.70;46.50
40289;DHT22;28991;52.028;5.526;2023-03-14T11:11:22;19.60;45.80
40289;DHT22;28991;52.028;5.526;2023-03-14T11:13:51;19.60;47.20
40289;DHT22;28991;52.028;5.526;2023-03-14T11:22:36;19.70;46.80
40289;DHT22;28991;52.028;5.526;2023-03-14T11:24:53;19.70;46.40
40289;DHT22;28991;52.028;5.526;2023-03-14T11:27:44;19.60;46.60
40289;DHT22;28991;52.028;5.526;2023-03-14T11:32:46;19.60;45.60
40289;DHT22;28991;52.028;5.526;2023-03-14T11:40:50;19.60;46.20
40289;DHT22;28991;52.028;5.526;2023-03-14T11:43:24;19.60;45.80
40289;DHT22;28991;52.028;5.526;2023-03-14T11:45:56;19.70;44.90
40289;DHT22;28991;52.028;5.526;2023-03-14T11:51:44;19.60;44.30
40289;DHT22;28991;52.028;5.526;2023-03-14T11:54:41;19.70;43.70
40289;DHT22;28991;52.028;5.526;2023-03-14T11:57:15;19.70;42.80
40289;DHT22;28991;52.028;5.526;2023-03-14T12:10:22;19.80;41.00
40289;DHT22;28991;52.028;5.526;2023-03-14T12:12:47;19.80;39.70
40289;DHT22;28991;52.028;5.526;2023-03-14T12:15:21;19.90;41.90
40289;DHT22;28991;52.028;5.526;2023-03-14T12:17:53;19.90;40.40
40289;DHT22;28991;52.028;5.526;2023-03-14T12:20:24;19.90;42.00
40289;DHT22;28991;52.028;5.526;2023-03-14T12:22:55;19.90;40.20
40289;DHT22;28991;52.028;5.526;2023-03-14T12:25:25;19.90;39.20
40289;DHT22;28991;52.028;5.526;2023-03-14T12:41:22;19.90;40.10
40289;DHT22;28991;52.028;5.526;2023-03-14T12:43:48;19.90;40.00
40289;DHT22;28991;52.028;5.526;2023-03-14T12:48:45;19.90;36.10
40289;DHT22;28991;52.028;5.526;2023-03-14T12:51:29;19.80;37.10
40289;DHT22;28991;52.028;5.526;2023-03-14T12:54:34;19.90;38.60
40289;DHT22;28991;52.028;5.526;2023-03-14T12:59:46;19.90;37.60
40289;DHT22;28991;52.028;5.526;2023-03-14T13:15:38;19.90;37.20
40289;DHT22;28991;52.028;5.526;2023-03-14T13:20:53;19.80;36.00
40289;DHT22;28991;52.028;5.526;2023-03-14T13:23:27;19.80;35.40
40289;DHT22;28991;52.028;5.526;2023-03-14T13:25:54;19.80;36.80
40289;DHT22;28991;52.028;5.526;2023-03-14T13:28:20;19.80;33.40
40289;DHT22;28991;52.028;5.526;2023-03-14T13:30:48;20.10;36.70
40289;DHT22;28991;52.028;5.526;2023-03-14T13:33:19;19.80;35.70
40289;DHT22;28991;52.028;5.526;2023-03-14T13:35:49;19.90;36.10
40289;DHT22;28991;52.028;5.526;2023-03-14T13:38:21;19.90;34.60
40289;DHT22;28991;52.028;5.526;2023-03-14T13:40:49;19.80;34.30
40289;DHT22;28991;52.028;5.526;2023-03-14T13:43:21;19.80;33.00
40289;DHT22;28991;52.028;5.526;2023-03-14T13:45:50;19.80;35.60
40289;DHT22;28991;52.028;5.526;2023-03-14T13:48:16;19.90;32.90
40289;DHT22;28991;52.028;5.526;2023-03-14T13:50:54;19.80;35.60
40289;DHT22;28991;52.028;5.526;2023-03-14T13:53:20;19.80;33.00
40289;DHT22;28991;52.028;5.526;2023-03-14T13:55:46;20.00;33.60
40289;DHT22;28991;52.028;5.526;2023-03-14T13:58:26;19.90;32.40
40289;DHT22;28991;52.028;5.526;2023-03-14T14:01:02;19.90;34.90
40289;DHT22;28991;52.028;5.526;2023-03-14T14:03:32;19.90;33.10
40289;DHT22;28991;52.028;5.526;2023-03-14T14:05:58;19.90;32.50
40289;DHT22;28991;52.028;5.526;2023-03-14T14:08:24;19.90;31.50
40289;DHT22;28991;52.028;5.526;2023-03-14T14:10:53;19.80;30.90
40289;DHT22;28991;52.028;5.526;2023-03-14T14:13:21;19.80;31.30
40289;DHT22;28991;52.028;5.526;2023-03-14T14:15:51;19.90;31.70
40289;DHT22;28991;52.028;5.526;2023-03-14T14:18:19;19.90;32.30
40289;DHT22;28991;52.028;5.526;2023-03-14T14:20:47;19.70;31.50
40289;DHT22;28991;52.028;5.526;2023-03-14T14:23:17;19.80;31.50
40289;DHT22;28991;52.028;5.526;2023-03-14T14:25:50;19.90;33.70
40289;DHT22;28991;52.028;5.526;2023-03-14T14:33:57;19.90;32.80
40289;DHT22;28991;52.028;5.526;2023-03-14T14:36:30;20.00;33.10
40289;DHT22;28991;52.028;5.526;2023-03-14T14:39:18;20.00;32.30
40289;DHT22;28991;52.028;5.526;2023-03-14T14:41:47;20.00;31.50
40289;DHT22;28991;52.028;5.526;2023-03-14T14:44:17;20.00;30.00
40289;DHT22;28991;52.028;5.526;2023-03-14T14:46:44;20.20;29.90
40289;DHT22;28991;52.028;5.526;2023-03-14T14:49:13;20.00;30.40
40289;DHT22;28991;52.028;5.526;2023-03-14T14:51:44;20.00;30.10
40289;DHT22;28991;52.028;5.526;2023-03-14T14:54:17;19.90;29.90
40289;DHT22;28991;52.028;5.526;2023-03-14T14:56:52;20.60;30.20
40289;DHT22;28991;52.028;5.526;2023-03-14T14:59:26;20.00;30.30
40289;DHT22;28991;52.028;5.526;2023-03-14T15:01:56;20.00;29.80
40289;DHT22;28991;52.028;5.526;2023-03-14T15:04:22;19.30;28.80
40289;DHT22;28991;52.028;5.526;2023-03-14T15:06:49;19.90;29.60
40289;DHT22;28991;52.028;5.526;2023-03-14T15:09:16;20.00;29.80
40289;DHT22;28991;52.028;5.526;2023-03-14T15:11:43;19.80;29.90
40289;DHT22;28991;52.028;5.526;2023-03-14T15:14:08;20.00;29.90
40289;DHT22;28991;52.028;5.526;2023-03-14T15:16:34;20.00;29.10
40289;DHT22;28991;52.028;5.526;2023-03-14T15:19:02;20.00;30.00
40289;DHT22;28991;52.028;5.526;2023-03-14T15:21:31;20.00;29.50
40289;DHT22;28991;52.028;5.526;2023-03-14T15:23:56;20.00;29.80
40289;DHT22;28991;52.028;5.526;2023-03-14T15:26:25;20.00;30.00
40289;DHT22;28991;52.028;5.526;2023-03-14T15:28:51;19.90;30.00
40289;DHT22;28991;52.028;5.526;2023-03-14T15:31:18;19.80;31.00
40289;DHT22;28991;52.028;5.526;2023-03-14T15:33:45;20.00;31.90
40289;DHT22;28991;52.028;5.526;2023-03-14T15:36:23;20.00;33.50
40289;DHT22;28991;52.028;5.526;2023-03-14T15:38:49;19.90;34.10
40289;DHT22;28991;52.028;5.526;2023-03-14T15:41:16;20.00;34.50
40289;DHT22;28991;52.028;5.526;2023-03-14T15:43:42;19.80;34.60
40289;DHT22;28991;52.028;5.526;2023-03-14T15:46:09;19.60;34.70
40289;DHT22;28991;52.028;5.526;2023-03-14T15:48:35;19.70;34.80
40289;DHT22;28991;52.028;5.526;2023-03-14T15:51:01;19.60;34.90
40289;DHT22;28991;52.028;5.526;2023-03-14T15:53:26;19.60;34.90
40289;DHT22;28991;52.028;5.526;2023-03-14T15:55:52;19.50;35.00
40289;DHT22;28991;52.028;5.526;2023-03-14T15:58:20;19.80;35.40
40289;DHT22;28991;52.028;5.526;2023-03-14T16:00:45;19.50;35.20
40289;DHT22;28991;52.028;5.526;2023-03-14T16:03:12;19.40;35.50
40289;DHT22;28991;52.028;5.526;2023-03-14T16:05:38;19.30;35.50
40289;DHT22;28991;52.028;5.526;2023-03-14T16:08:05;19.30;35.40
40289;DHT22;28991;52.028;5.526;2023-03-14T16:10:31;19.30;35.60
40289;DHT22;28991;52.028;5.526;2023-03-14T16:12:56;19.30;35.70
40289;DHT22;28991;52.028;5.526;2023-03-14T16:15:22;19.20;35.60
40289;DHT22;28991;52.028;5.526;2023-03-14T16:17:55;19.40;35.90
40289;DHT22;28991;52.028;5.526;2023-03-14T16:20:21;19.50;35.90
40289;DHT22;28991;52.028;5.526;2023-03-14T16:22:47;19.20;35.80
40289;DHT22;28991;52.028;5.526;2023-03-14T16:25:13;19.00;35.90
40289;DHT22;28991;52.028;5.526;2023-03-14T16:27:40;19.10;36.00
40289;DHT22;28991;52.028;5.526;2023-03-14T16:30:07;19.10;36.10
40289;DHT22;28991;52.028;5.526;2023-03-14T16:32:33;19.10;36.10
40289;DHT22;28991;52.028;5.526;2023-03-14T16:34:59;19.10;36.20
40289;DHT22;28991;52.028;5.526;2023-03-14T16:37:25;19.10;36.30
40289;DHT22;28991;52.028;5.526;2023-03-14T16:39:52;19.10;36.40
40289;DHT22;28991;52.028;5.526;2023-03-14T16:42:17;18.80;36.20
40289;DHT22;28991;52.028;5.526;2023-03-14T16:44:43;19.00;36.40
40289;DHT22;28991;52.028;5.526;2023-03-14T16:47:09;19.20;36.60
40289;DHT22;28991;52.028;5.526;2023-03-14T16:49:34;18.90;36.50
40289;DHT22;28991;52.028;5.526;2023-03-14T16:52:00;19.00;36.70
40289;DHT22;28991;52.028;5.526;2023-03-14T16:54:25;18.90;36.60
40289;DHT22;28991;52.028;5.526;2023-03-14T16:56:51;19.00;36.80
40289;DHT22;28991;52.028;5.526;2023-03-14T16:59:18;18.90;36.70
40289;DHT22;28991;52.028;5.526;2023-03-14T17:01:43;18.90;36.80
40289;DHT22;28991;52.028;5.526;2023-03-14T17:04:09;19.00;36.90
40289;DHT22;28991;52.028;5.526;2023-03-14T17:06:36;18.80;36.90